Time;durP1;ratioP1;P1;durP2;ratioP2;P2;SDS_P1;SDS_P2;PMS_P1;PMS_P2;Temp;Humidity;BMP_temperature;BMP_pressure;BME280_temperature;BME280_humidity;BME280_pressure;Samples;Min_cycle;Max_cycle;Signal;HPM_P1;HPM_P2
2023/08/12 00:00:19;;;;;;;0.30;0.30;;;20.20;99.90;;;;;;5004163;28;20084;-73
2023/08/12 00:02:45;;;;;;;0.28;0.28;;;20.40;99.90;;;;;;4990545;28;20061;-70
2023/08/12 00:05:12;;;;;;;0.40;0.40;;;19.90;99.90;;;;;;4985852;28;20732;-72
2023/08/12 00:07:41;;;;;;;0.85;0.70;;;20.00;99.90;;;;;;4990559;28;20113;-72
2023/08/12 00:10:08;;;;;;;0.30;0.30;;;20.00;99.90;;;;;;5007112;28;20107;-72
2023/08/12 00:12:35;;;;;;;0.38;0.38;;;20.00;99.90;;;;;;5003969;28;20046;-72
2023/08/12 00:15:02;;;;;;;0.30;0.30;;;20.00;99.90;;;;;;5015815;28;20038;-72
2023/08/12 00:17:28;;;;;;;0.30;0.30;;;20.50;99.90;;;;;;5009315;28;20037;-73
2023/08/12 00:19:54;;;;;;;0.20;0.20;;;20.50;99.90;;;;;;5002932;28;20567;-71
2023/08/12 00:22:19;;;;;;;0.40;0.40;;;19.80;99.90;;;;;;5010905;28;20065;-70
2023/08/12 00:24:45;;;;;;;0.38;0.38;;;20.10;99.90;;;;;;5004073;28;20390;-70
2023/08/12 00:27:11;;;;;;;0.30;0.30;;;19.90;99.90;;;;;;4990616;28;20048;-73
2023/08/12 00:33:33;;;;;;;0.30;0.30;;;20.50;99.90;;;;;;5011102;28;20028;-73
2023/08/12 00:35:59;;;;;;;0.30;0.30;;;20.30;99.90;;;;;;5005469;28;20494;-70
2023/08/12 00:38:25;;;;;;;0.30;0.30;;;20.10;99.90;;;;;;5009912;28;20041;-70
2023/08/12 00:40:50;;;;;;;0.63;0.63;;;19.90;99.90;;;;;;5014677;28;20153;-74
2023/08/12 00:43:16;;;;;;;0.50;0.50;;;20.00;99.90;;;;;;5009066;28;20045;-75
2023/08/12 00:45:42;;;;;;;0.40;0.40;;;20.10;99.90;;;;;;5011008;28;20135;-71
2023/08/12 00:48:08;;;;;;;0.30;0.30;;;19.60;99.90;;;;;;5004419;28;20045;-70
2023/08/12 00:50:36;;;;;;;0.38;0.38;;;19.90;99.90;;;;;;5018969;28;20163;-72
2023/08/12 00:53:02;;;;;;;0.30;0.30;;;19.50;99.90;;;;;;5008707;28;20038;-70
2023/08/12 00:55:28;;;;;;;0.30;0.30;;;20.00;99.90;;;;;;4993907;28;20038;-70
2023/08/12 00:57:53;;;;;;;0.30;0.30;;;19.80;99.90;;;;;;5007957;28;20042;-70
2023/08/12 01:00:20;;;;;;;0.57;0.57;;;19.40;99.90;;;;;;5007688;28;20077;-71
2023/08/12 01:02:48;;;;;;;0.30;0.30;;;19.90;99.90;;;;;;5010043;28;20045;-73
2023/08/12 01:05:15;;;;;;;0.32;0.32;;;19.30;99.90;;;;;;5009595;28;20661;-71
2023/08/12 01:07:42;;;;;;;0.32;0.32;;;19.30;99.90;;;;;;5010619;28;20141;-71
2023/08/12 01:10:14;;;;;;;0.40;0.40;;;19.30;99.90;;;;;;5006803;28;20046;-71
2023/08/12 01:12:56;;;;;;;0.30;0.30;;;19.70;99.90;;;;;;5010108;28;20041;-71
2023/08/12 01:15:24;;;;;;;0.40;0.40;;;19.80;99.90;;;;;;4993809;28;20049;-72
2023/08/12 01:17:53;;;;;;;0.30;0.30;;;19.10;99.90;;;;;;5001486;28;20061;-71
2023/08/12 01:20:25;;;;;;;0.30;0.30;;;19.60;99.90;;;;;;4986694;28;20085;-71
2023/08/12 01:22:57;;;;;;;0.30;0.30;;;19.00;99.90;;;;;;5008064;28;20053;-71
2023/08/12 01:25:24;;;;;;;0.30;0.30;;;19.60;99.90;;;;;;5008767;28;20177;-71
2023/08/12 01:27:50;;;;;;;0.20;0.20;;;19.60;99.90;;;;;;5009229;28;20505;-71
2023/08/12 01:30:18;;;;;;;0.30;0.30;;;19.10;99.90;;;;;;5011829;28;20042;-71
2023/08/12 01:32:46;;;;;;;0.30;0.30;;;19.10;99.90;;;;;;5007094;28;20041;-71
2023/08/12 01:35:25;;;;;;;0.40;0.40;;;18.90;99.90;;;;;;5009553;28;20061;-71
2023/08/12 01:37:52;;;;;;;0.22;0.22;;;18.90;99.90;;;;;;4992167;28;20057;-71
2023/08/12 01:40:19;;;;;;;0.30;0.30;;;19.40;99.90;;;;;;5007408;28;20413;-71
2023/08/12 01:42:45;;;;;;;0.25;0.25;;;18.90;99.90;;;;;;5007713;28;20033;-71
2023/08/12 01:45:11;;;;;;;0.40;0.40;;;19.00;99.90;;;;;;5009098;28;20974;-71
2023/08/12 01:47:37;;;;;;;0.30;0.30;;;19.40;99.90;;;;;;5014318;28;20081;-71
2023/08/12 01:50:03;;;;;;;0.30;0.30;;;19.40;99.90;;;;;;5003972;28;20060;-71
2023/08/12 01:52:29;;;;;;;0.30;0.30;;;19.30;99.90;;;;;;5009277;28;20038;-72
2023/08/12 01:54:55;;;;;;;0.45;0.45;;;18.90;99.90;;;;;;5005090;28;20610;-71
2023/08/12 01:57:21;;;;;;;0.30;0.30;;;18.80;99.90;;;;;;4999109;28;20045;-72
2023/08/12 01:59:47;;;;;;;0.45;0.45;;;19.00;99.90;;;;;;5004766;28;20041;-71
2023/08/12 02:02:12;;;;;;;0.30;0.30;;;18.70;99.90;;;;;;5014015;28;20099;-71
2023/08/12 02:04:40;;;;;;;0.30;0.30;;;19.20;99.90;;;;;;5008917;28;20050;-71
2023/08/12 02:07:06;;;;;;;0.70;0.70;;;19.10;99.90;;;;;;5003460;28;20485;-71
2023/08/12 02:09:31;;;;;;;0.30;0.30;;;19.20;99.90;;;;;;5003660;28;20123;-71
2023/08/12 02:11:57;;;;;;;0.17;0.17;;;18.60;99.90;;;;;;5008070;28;20091;-71
2023/08/12 02:14:23;;;;;;;0.30;0.30;;;18.50;99.90;;;;;;5007109;28;20477;-71
2023/08/12 02:16:49;;;;;;;0.40;0.40;;;19.10;99.90;;;;;;5008349;28;20026;-71
2023/08/12 02:19:14;;;;;;;0.30;0.30;;;18.40;99.90;;;;;;5014649;28;20493;-72
2023/08/12 02:21:41;;;;;;;0.30;0.30;;;18.90;99.90;;;;;;5007809;28;20038;-71
2023/08/12 02:24:08;;;;;;;0.30;0.30;;;18.40;99.90;;;;;;5001893;28;20952;-71
2023/08/12 02:26:34;;;;;;;0.30;0.30;;;18.40;99.90;;;;;;5004387;28;20042;-72
2023/08/12 02:29:00;;;;;;;0.52;0.52;;;18.50;99.90;;;;;;4997820;28;20572;-72
2023/08/12 02:31:25;;;;;;;0.55;0.55;;;19.00;99.90;;;;;;5007975;28;20089;-72
2023/08/12 02:33:51;;;;;;;0.20;0.20;;;18.60;99.90;;;;;;4982644;28;20398;-70
2023/08/12 02:36:17;;;;;;;0.35;0.35;;;18.70;99.90;;;;;;4991358;28;20409;-72
2023/08/12 02:38:42;;;;;;;0.45;0.45;;;18.50;99.90;;;;;;4992172;28;20034;-72
2023/08/12 02:41:08;;;;;;;0.40;0.40;;;18.50;99.90;;;;;;5007037;28;20293;-72
2023/08/12 02:43:34;;;;;;;0.50;0.50;;;18.80;99.90;;;;;;5003614;28;20050;-70
2023/08/12 02:45:59;;;;;;;0.35;0.35;;;18.50;99.90;;;;;;5004635;28;20042;-71
2023/08/12 02:48:25;;;;;;;0.30;0.30;;;18.50;99.90;;;;;;4997190;28;20096;-72
2023/08/12 02:50:51;;;;;;;0.30;0.30;;;18.50;99.90;;;;;;5006047;28;20405;-69
2023/08/12 02:53:17;;;;;;;0.20;0.20;;;18.70;99.90;;;;;;4999203;28;20069;-72
2023/08/12 02:55:44;;;;;;;0.30;0.30;;;18.60;99.90;;;;;;4991359;28;20478;-72
2023/08/12 02:58:10;;;;;;;0.50;0.50;;;19.00;99.90;;;;;;4998245;28;20036;-69
2023/08/12 03:00:36;;;;;;;0.30;0.30;;;18.90;99.90;;;;;;4984576;28;20041;-72
2023/08/12 03:03:01;;;;;;;0.30;0.30;;;18.90;99.90;;;;;;4986313;28;20048;-72
2023/08/12 03:05:27;;;;;;;0.30;0.30;;;19.10;99.90;;;;;;5000971;28;20092;-72
2023/08/12 03:07:53;;;;;;;0.40;0.40;;;18.60;99.90;;;;;;5006886;28;20525;-70
2023/08/12 03:10:18;;;;;;;0.43;0.43;;;18.80;99.90;;;;;;5007421;28;20042;-70
2023/08/12 03:12:44;;;;;;;0.40;0.40;;;19.20;99.90;;;;;;5007829;28;20037;-70
2023/08/12 03:15:11;;;;;;;0.30;0.30;;;18.80;99.90;;;;;;5007604;28;20050;-73
2023/08/12 03:17:41;;;;;;;0.30;0.30;;;18.80;99.90;;;;;;5004182;28;20088;-70
2023/08/12 03:20:08;;;;;;;0.40;0.40;;;19.20;99.90;;;;;;5003876;28;20046;-70
2023/08/12 03:22:35;;;;;;;0.57;0.57;;;18.90;99.90;;;;;;4999485;28;20046;-70
2023/08/12 03:25:01;;;;;;;0.50;0.50;;;19.30;99.90;;;;;;5009799;28;20068;-70
2023/08/12 03:31:07;;;;;;;0.20;0.20;;;19.00;99.90;;;;;;5005471;28;20485;-70
2023/08/12 03:33:33;;;;;;;0.30;0.30;;;19.40;99.90;;;;;;5006132;28;20049;-70
2023/08/12 03:35:59;;;;;;;0.38;0.30;;;19.00;99.90;;;;;;5000205;28;20054;-73
2023/08/12 03:38:25;;;;;;;0.30;0.30;;;19.20;99.90;;;;;;5016185;28;20049;-72
2023/08/12 03:40:50;;;;;;;0.30;0.30;;;19.30;99.90;;;;;;4997287;28;20053;-70
2023/08/12 03:43:16;;;;;;;0.35;0.35;;;19.30;99.90;;;;;;5007052;28;20073;-72
2023/08/12 03:45:45;;;;;;;0.20;0.20;;;19.40;99.90;;;;;;4990400;28;20110;-72
2023/08/12 03:48:11;;;;;;;0.30;0.30;;;18.90;99.90;;;;;;5007050;28;20056;-72
2023/08/12 03:50:38;;;;;;;0.30;0.30;;;19.00;99.90;;;;;;5003770;28;20046;-72
2023/08/12 03:53:04;;;;;;;0.30;0.30;;;19.10;99.90;;;;;;5002223;28;20103;-72
2023/08/12 03:55:33;;;;;;;0.40;0.40;;;19.10;99.90;;;;;;4995273;28;20485;-72
2023/08/12 03:58:00;;;;;;;0.30;0.30;;;19.30;99.90;;;;;;4978840;28;20421;-72
2023/08/12 04:00:27;;;;;;;0.30;0.30;;;19.20;99.90;;;;;;4998062;28;20115;-73
2023/08/12 04:02:53;;;;;;;0.50;0.50;;;19.00;99.90;;;;;;5006466;28;20057;-72
2023/08/12 04:05:19;;;;;;;0.20;0.20;;;19.00;99.90;;;;;;5007269;28;20038;-72
2023/08/12 04:07:44;;;;;;;0.40;0.40;;;18.70;99.90;;;;;;5005790;28;20049;-71
2023/08/12 04:10:10;;;;;;;0.22;0.22;;;18.80;99.90;;;;;;4997209;28;20050;-70
2023/08/12 04:12:36;;;;;;;0.40;0.40;;;19.10;99.90;;;;;;5006294;28;20038;-78
2023/08/12 04:15:05;;;;;;;0.88;0.50;;;19.30;99.90;;;;;;5007344;28;20076;-70
2023/08/12 04:17:31;;;;;;;0.40;0.40;;;19.10;99.90;;;;;;5006748;28;20120;-71
2023/08/12 04:19:57;;;;;;;0.40;0.40;;;18.90;99.90;;;;;;5006053;28;20053;-71
2023/08/12 04:22:23;;;;;;;0.40;0.40;;;19.30;99.90;;;;;;5004094;28;20050;-73
2023/08/12 04:24:48;;;;;;;0.30;0.30;;;18.80;99.90;;;;;;5005020;28;20410;-71
2023/08/12 04:27:16;;;;;;;0.30;0.30;;;18.90;99.90;;;;;;4984105;28;20033;-70
2023/08/12 04:29:42;;;;;;;0.30;0.30;;;19.30;99.90;;;;;;5001279;28;20064;-77
2023/08/12 04:32:08;;;;;;;0.22;0.22;;;19.20;99.90;;;;;;5006004;28;20042;-71
2023/08/12 04:34:34;;;;;;;0.43;0.43;;;19.00;99.90;;;;;;5004416;28;20034;-70
2023/08/12 04:36:59;;;;;;;0.30;0.30;;;18.70;99.90;;;;;;5004982;28;20053;-70
2023/08/12 04:39:25;;;;;;;0.30;0.30;;;19.30;99.90;;;;;;5007020;28;20444;-70
2023/08/12 04:41:51;;;;;;;0.40;0.40;;;19.10;99.90;;;;;;4985673;28;20514;-74
2023/08/12 04:44:16;;;;;;;0.73;0.68;;;18.90;99.90;;;;;;5005571;28;20042;-72
2023/08/12 04:46:42;;;;;;;0.40;0.40;;;18.90;99.90;;;;;;4976911;28;20041;-72
2023/08/12 04:49:08;;;;;;;0.40;0.40;;;18.90;99.90;;;;;;5005308;28;20084;-71
2023/08/12 04:51:34;;;;;;;0.40;0.40;;;19.00;99.90;;;;;;5006500;28;20390;-72
2023/08/12 04:54:01;;;;;;;2.00;1.42;;;19.00;99.90;;;;;;5005523;28;20034;-72
2023/08/12 04:56:29;;;;;;;0.20;0.20;;;18.90;99.90;;;;;;4983698;28;20041;-71
2023/08/12 04:58:55;;;;;;;0.93;0.93;;;19.10;99.90;;;;;;4997921;28;20042;-70
2023/08/12 05:01:21;;;;;;;0.30;0.30;;;19.20;99.90;;;;;;5006398;28;20076;-73
2023/08/12 05:03:47;;;;;;;0.65;0.65;;;19.20;99.90;;;;;;5005277;28;20046;-70
2023/08/12 05:06:13;;;;;;;0.57;0.57;;;19.10;99.90;;;;;;5009383;28;20104;-74
2023/08/12 05:08:38;;;;;;;0.35;0.35;;;19.50;99.90;;;;;;5010141;28;20073;-71
2023/08/12 05:11:04;;;;;;;0.30;0.30;;;19.00;99.90;;;;;;5009392;28;20046;-71
2023/08/12 05:13:30;;;;;;;0.35;0.35;;;19.10;99.90;;;;;;5006988;28;20100;-70
2023/08/12 05:15:56;;;;;;;0.30;0.30;;;19.80;99.90;;;;;;5009861;28;20172;-70
2023/08/12 05:18:26;;;;;;;0.73;0.73;;;19.30;99.90;;;;;;5008011;28;20117;-70
2023/08/12 05:20:52;;;;;;;0.30;0.30;;;19.20;99.90;;;;;;5006058;28;20057;-73
2023/08/12 05:23:20;;;;;;;0.20;0.20;;;19.30;99.90;;;;;;5007928;28;20050;-73
2023/08/12 05:25:45;;;;;;;0.40;0.40;;;19.70;99.90;;;;;;5011629;28;20486;-70
2023/08/12 05:28:11;;;;;;;0.40;0.40;;;19.70;99.90;;;;;;5006632;28;20046;-70
2023/08/12 05:30:37;;;;;;;0.55;0.55;;;19.60;99.90;;;;;;5005099;28;20089;-70
2023/08/12 05:33:03;;;;;;;0.40;0.40;;;19.70;99.90;;;;;;5008883;28;20041;-70
2023/08/12 05:35:33;;;;;;;0.35;0.35;;;19.80;99.90;;;;;;5006851;28;20334;-70
2023/08/12 05:37:59;;;;;;;0.80;0.77;;;19.80;99.90;;;;;;5004275;28;20161;-73
2023/08/12 05:40:24;;;;;;;0.40;0.40;;;19.40;99.90;;;;;;5008971;28;20125;-70
2023/08/12 05:42:50;;;;;;;0.30;0.30;;;19.30;99.90;;;;;;5005933;28;20037;-70
2023/08/12 05:45:15;;;;;;;0.45;0.45;;;19.90;99.90;;;;;;5008925;28;20042;-70
2023/08/12 05:47:41;;;;;;;0.40;0.40;;;19.90;99.90;;;;;;5005021;28;20401;-70
2023/08/12 05:50:07;;;;;;;0.75;0.75;;;19.40;99.90;;;;;;5008770;28;20241;-70
2023/08/12 05:52:33;;;;;;;0.50;0.50;;;19.90;99.90;;;;;;5005505;28;20044;-70
2023/08/12 05:54:58;;;;;;;1.42;0.75;;;19.40;99.90;;;;;;5007910;28;20107;-71
2023/08/12 05:57:24;;;;;;;0.65;0.60;;;20.00;99.90;;;;;;5007351;28;20096;-71
2023/08/12 05:59:50;;;;;;;0.40;0.40;;;20.00;99.90;;;;;;5006082;28;20129;-71
2023/08/12 06:02:16;;;;;;;0.30;0.30;;;20.20;99.90;;;;;;4993866;28;20064;-71
2023/08/12 06:04:41;;;;;;;0.40;0.40;;;19.60;99.90;;;;;;5007423;28;20053;-71
2023/08/12 06:07:07;;;;;;;0.43;0.43;;;20.40;99.90;;;;;;5003977;28;20136;-71
2023/08/12 06:09:33;;;;;;;0.30;0.30;;;20.10;99.90;;;;;;4993762;28;20579;-71
2023/08/12 06:11:58;;;;;;;0.52;0.52;;;20.00;99.90;;;;;;5007670;28;20069;-72
2023/08/12 06:14:24;;;;;;;0.50;0.50;;;20.00;99.90;;;;;;5006212;28;20091;-71
2023/08/12 06:16:49;;;;;;;0.57;0.57;;;20.10;99.90;;;;;;4991750;28;20512;-71
2023/08/12 06:19:15;;;;;;;0.35;0.35;;;20.20;99.90;;;;;;5007562;28;20076;-72
2023/08/12 06:21:41;;;;;;;0.25;0.25;;;20.60;99.90;;;;;;5006846;28;20053;-71
2023/08/12 06:24:06;;;;;;;0.32;0.32;;;20.40;99.90;;;;;;5004055;28;20046;-71
2023/08/12 06:26:32;;;;;;;0.88;0.88;;;20.70;99.90;;;;;;5005072;28;20049;-70
2023/08/12 06:28:58;;;;;;;0.40;0.40;;;20.50;99.90;;;;;;5007933;28;20046;-71
2023/08/12 06:31:23;;;;;;;0.80;0.80;;;20.80;99.90;;;;;;5007780;28;20129;-70
2023/08/12 06:33:49;;;;;;;0.95;0.60;;;20.50;99.90;;;;;;5024935;28;20042;-70
2023/08/12 06:36:15;;;;;;;0.40;0.40;;;21.10;99.90;;;;;;5008910;28;20477;-73
2023/08/12 06:38:40;;;;;;;0.73;0.73;;;20.80;99.90;;;;;;5006685;28;20054;-70
2023/08/12 06:41:06;;;;;;;1.38;0.80;;;20.70;99.90;;;;;;5003586;28;20030;-70
2023/08/12 06:43:32;;;;;;;0.73;0.57;;;21.10;99.90;;;;;;5006190;28;20038;-70
2023/08/12 06:45:57;;;;;;;0.30;0.30;;;20.70;99.90;;;;;;5007904;28;20042;-70
2023/08/12 06:48:23;;;;;;;0.75;0.75;;;21.20;99.90;;;;;;5008175;28;20038;-70
2023/08/12 06:50:55;;;;;;;1.13;0.68;;;20.70;99.90;;;;;;5007810;28;20144;-70
2023/08/12 06:53:21;;;;;;;1.13;1.02;;;20.90;99.90;;;;;;5007411;28;20389;-70
2023/08/12 06:55:47;;;;;;;1.23;0.75;;;20.70;99.90;;;;;;5003094;28;20129;-70
2023/08/12 06:58:14;;;;;;;0.32;0.32;;;21.30;99.90;;;;;;4996416;28;20519;-72
2023/08/12 07:00:40;;;;;;;0.93;0.60;;;21.10;99.90;;;;;;4997658;28;20046;-70
2023/08/12 07:03:06;;;;;;;0.60;0.60;;;21.30;99.90;;;;;;5001063;28;20053;-70
2023/08/12 07:05:31;;;;;;;1.10;1.00;;;20.80;99.90;;;;;;5006820;28;20042;-70
2023/08/12 07:07:57;;;;;;;2.38;1.48;;;21.10;99.90;;;;;;5007337;28;20088;-70
2023/08/12 07:10:23;;;;;;;0.40;0.40;;;20.90;99.90;;;;;;5018582;28;20030;-70
2023/08/12 07:12:48;;;;;;;0.80;0.73;;;20.90;99.90;;;;;;5007804;28;20038;-70
2023/08/12 07:15:15;;;;;;;0.93;0.93;;;21.00;99.90;;;;;;5001180;28;20165;-72
2023/08/12 07:17:41;;;;;;;0.30;0.30;;;21.40;99.90;;;;;;5004090;28;20141;-73
2023/08/12 07:20:07;;;;;;;0.50;0.50;;;21.00;99.90;;;;;;5007162;28;20064;-71
2023/08/12 07:22:33;;;;;;;0.30;0.30;;;21.40;99.90;;;;;;5000864;28;20037;-70
2023/08/12 07:25:02;;;;;;;0.85;0.85;;;20.80;99.90;;;;;;5007006;28;20041;-71
2023/08/12 07:27:28;;;;;;;0.40;0.40;;;21.20;99.90;;;;;;5007120;28;20049;-72
2023/08/12 07:29:53;;;;;;;0.60;0.60;;;20.70;99.90;;;;;;4985329;28;20112;-73
2023/08/12 07:32:19;;;;;;;0.73;0.73;;;20.80;99.90;;;;;;5001041;28;20088;-70
2023/08/12 07:34:45;;;;;;;0.30;0.30;;;21.40;99.90;;;;;;5004386;28;20548;-70
2023/08/12 07:37:11;;;;;;;1.27;0.88;;;20.70;99.90;;;;;;5003756;28;20050;-70
2023/08/12 07:39:37;;;;;;;0.50;0.50;;;20.80;99.90;;;;;;5019574;28;20394;-73
2023/08/12 07:42:03;;;;;;;0.63;0.63;;;20.60;99.90;;;;;;5006732;28;20044;-69
2023/08/12 07:44:29;;;;;;;0.68;0.68;;;21.30;99.90;;;;;;5006853;28;20552;-70
2023/08/12 07:46:54;;;;;;;0.50;0.50;;;21.00;99.90;;;;;;5006598;28;20069;-70
2023/08/12 07:49:21;;;;;;;1.55;1.45;;;20.60;99.90;;;;;;5003154;28;20207;-70
2023/08/12 07:51:49;;;;;;;0.82;0.82;;;21.30;99.90;;;;;;5004198;28;20069;-73
2023/08/12 07:54:15;;;;;;;0.85;0.70;;;21.10;99.90;;;;;;5006052;28;20430;-70
2023/08/12 07:56:41;;;;;;;0.45;0.45;;;20.80;99.90;;;;;;5003657;28;20091;-71
2023/08/12 07:59:06;;;;;;;0.57;0.57;;;21.30;99.90;;;;;;4983181;28;20519;-71
2023/08/12 08:01:32;;;;;;;0.85;0.80;;;21.10;99.90;;;;;;4990781;28;20486;-71
2023/08/12 08:03:58;;;;;;;1.00;1.00;;;20.80;99.90;;;;;;4998546;28;20149;-72
2023/08/12 08:06:24;;;;;;;0.50;0.50;;;21.20;99.90;;;;;;5001272;28;20046;-72
2023/08/12 08:08:50;;;;;;;0.50;0.50;;;20.80;99.90;;;;;;4998094;28;20045;-73
2023/08/12 08:11:15;;;;;;;0.95;0.73;;;20.80;99.90;;;;;;4983347;28;20041;-72
2023/08/12 08:13:41;;;;;;;1.20;1.10;;;21.10;99.90;;;;;;4989614;28;20045;-72
2023/08/12 08:16:07;;;;;;;0.77;0.77;;;21.20;99.90;;;;;;5006494;28;20038;-72
2023/08/12 08:18:33;;;;;;;0.98;0.93;;;20.90;99.90;;;;;;4989903;28;20042;-73
2023/08/12 08:20:58;;;;;;;0.90;0.90;;;21.40;99.90;;;;;;5000709;28;20044;-73
2023/08/12 08:23:24;;;;;;;1.10;1.05;;;20.60;99.90;;;;;;5004712;28;20042;-73
2023/08/12 08:25:50;;;;;;;0.30;0.30;;;20.80;99.90;;;;;;5004205;28;20565;-72
2023/08/12 08:28:15;;;;;;;2.42;0.68;;;21.00;99.90;;;;;;4981017;28;20034;-72
2023/08/12 08:30:41;;;;;;;0.38;0.38;;;20.90;99.90;;;;;;5007278;28;20512;-72
2023/08/12 08:33:08;;;;;;;0.40;0.40;;;21.20;99.90;;;;;;5006038;28;20042;-72
2023/08/12 08:35:33;;;;;;;0.43;0.43;;;21.20;99.90;;;;;;5012823;28;20069;-72
2023/08/12 08:37:59;;;;;;;1.13;0.90;;;21.30;99.90;;;;;;5006761;28;20135;-72
2023/08/12 08:40:26;;;;;;;1.67;0.80;;;20.80;99.90;;;;;;4993920;28;20046;-72
2023/08/12 08:42:53;;;;;;;0.75;0.75;;;20.80;99.90;;;;;;5005375;28;20088;-72
2023/08/12 08:45:21;;;;;;;0.57;0.57;;;21.10;99.90;;;;;;4994169;28;20033;-72
2023/08/12 08:47:49;;;;;;;0.50;0.50;;;20.50;99.90;;;;;;5005844;28;20517;-72
2023/08/12 08:50:15;;;;;;;0.47;0.47;;;21.00;99.90;;;;;;5011475;28;20042;-72
2023/08/12 08:52:43;;;;;;;0.98;0.73;;;20.80;99.90;;;;;;5009483;28;20401;-72
2023/08/12 08:55:09;;;;;;;1.02;0.88;;;21.00;99.90;;;;;;5002675;28;20573;-71
2023/08/12 08:57:37;;;;;;;0.55;0.55;;;20.70;99.90;;;;;;5008960;28;20044;-72
2023/08/12 09:00:07;;;;;;;0.43;0.43;;;20.80;99.90;;;;;;5002805;28;20470;-72
2023/08/12 09:02:33;;;;;;;0.57;0.57;;;20.40;99.90;;;;;;4995127;28;20038;-72
2023/08/12 09:04:59;;;;;;;0.57;0.57;;;21.00;99.90;;;;;;5008593;28;20107;-72
2023/08/12 09:07:26;;;;;;;0.68;0.68;;;20.40;99.90;;;;;;5010120;28;20034;-72
2023/08/12 09:09:54;;;;;;;0.20;0.20;;;20.70;99.90;;;;;;4992084;28;20053;-73
2023/08/12 09:12:20;;;;;;;0.50;0.50;;;20.30;99.90;;;;;;5009293;28;20049;-71
2023/08/12 09:14:46;;;;;;;0.50;0.50;;;20.70;99.90;;;;;;5007860;28;20038;-71
2023/08/12 09:17:11;;;;;;;0.40;0.40;;;20.40;99.90;;;;;;5009048;28;20096;-71
2023/08/12 09:19:37;;;;;;;0.38;0.38;;;20.50;99.90;;;;;;5009738;28;20128;-71
2023/08/12 09:22:05;;;;;;;0.63;0.63;;;20.40;99.90;;;;;;5008654;28;20497;-70
2023/08/12 09:27:06;;;;;;;0.30;0.30;;;20.30;99.90;;;;;;5266901;23;20057;-71
2023/08/12 09:29:33;;;;;;;0.52;0.52;;;20.30;99.90;;;;;;5004656;28;20038;-71
2023/08/12 09:32:25;;;;;;;0.30;0.30;;;20.60;99.90;;;;;;5007992;28;20099;-71
2023/08/12 09:34:55;;;;;;;0.77;0.77;;;20.30;99.90;;;;;;4996765;28;20565;-70
2023/08/12 09:37:23;;;;;;;0.40;0.40;;;20.70;99.90;;;;;;5018836;28;20088;-69
2023/08/12 09:39:49;;;;;;;;;;;20.60;99.90;;;;;;5023979;28;20069;-68
2023/08/12 09:42:16;;;;;;;0.20;0.20;;;20.50;99.90;;;;;;5008457;28;19950;-70
2023/08/12 09:44:42;;;;;;;0.38;0.38;;;20.40;99.90;;;;;;4991984;28;20033;-69
2023/08/12 09:47:08;;;;;;;0.38;0.38;;;20.60;99.90;;;;;;5011318;28;20042;-69
2023/08/12 09:49:35;;;;;;;0.30;0.30;;;20.10;99.90;;;;;;4992585;28;20155;-69
2023/08/12 09:52:03;;;;;;;0.75;0.75;;;20.40;99.90;;;;;;5008216;28;20053;-69
2023/08/12 09:54:31;;;;;;;0.30;0.30;;;20.10;99.90;;;;;;5008235;28;20489;-69
2023/08/12 09:57:02;;;;;;;0.30;0.30;;;20.60;99.90;;;;;;4987998;28;20088;-70
2023/08/12 09:59:31;;;;;;;0.52;0.52;;;20.40;99.90;;;;;;5013755;28;20631;-69
2023/08/12 10:01:57;;;;;;;0.63;0.63;;;20.60;99.90;;;;;;5008105;28;20096;-70
2023/08/12 10:04:28;;;;;;;0.68;0.68;;;20.00;99.90;;;;;;4996977;28;20038;-70
2023/08/12 10:06:54;;;;;;;0.43;0.43;;;20.50;99.90;;;;;;5007617;28;20042;-70
2023/08/12 10:09:21;;;;;;;0.35;0.35;;;20.00;99.90;;;;;;5007484;28;20508;-69
2023/08/12 10:11:47;;;;;;;0.40;0.40;;;20.50;99.90;;;;;;4990486;28;20121;-69
2023/08/12 10:14:16;;;;;;;0.35;0.35;;;20.50;99.90;;;;;;5007091;28;20057;-70
2023/08/12 10:16:46;;;;;;;0.30;0.30;;;20.50;99.90;;;;;;5008430;28;20445;-70
2023/08/12 10:19:12;;;;;;;0.30;0.30;;;19.90;99.90;;;;;;5004212;28;20037;-69
2023/08/12 10:21:38;;;;;;;0.20;0.20;;;20.00;99.90;;;;;;5007190;28;20049;-69
2023/08/12 10:24:05;;;;;;;0.60;0.60;;;20.50;99.90;;;;;;5007680;28;20466;-69
2023/08/12 10:26:32;;;;;;;0.30;0.30;;;20.40;99.90;;;;;;5008053;28;20100;-69
2023/08/12 10:28:59;;;;;;;0.30;0.30;;;20.00;99.90;;;;;;5007286;28;20100;-69
2023/08/12 10:31:28;;;;;;;0.30;0.30;;;20.50;99.90;;;;;;4996037;28;20042;-69
2023/08/12 10:33:54;;;;;;;0.30;0.30;;;20.10;99.90;;;;;;5009554;28;20048;-69
2023/08/12 10:36:21;;;;;;;0.25;0.25;;;20.30;99.90;;;;;;5008044;28;20113;-69
2023/08/12 10:38:47;;;;;;;0.30;0.30;;;20.00;99.90;;;;;;5010830;28;20038;-69
2023/08/12 10:41:23;;;;;;;0.28;0.28;;;19.90;99.90;;;;;;5006546;28;20041;-69
2023/08/12 10:43:54;;;;;;;0.30;0.30;;;20.40;99.90;;;;;;5007514;28;21004;-69
2023/08/12 10:46:32;;;;;;;0.30;0.30;;;20.40;99.90;;;;;;4991006;28;20034;-69
2023/08/12 10:49:07;;;;;;;0.40;0.40;;;20.10;99.90;;;;;;4987731;28;20037;-69
2023/08/12 10:51:41;;;;;;;0.40;0.40;;;20.20;99.90;;;;;;4990952;28;20042;-69
2023/08/12 10:54:26;;;;;;;0.50;0.50;;;20.00;99.90;;;;;;5015432;28;20038;-69
2023/08/12 10:57:05;;;;;;;0.30;0.30;;;20.20;99.90;;;;;;5001675;28;20050;-69
2023/08/12 10:59:45;;;;;;;0.30;0.30;;;20.50;99.90;;;;;;5006295;28;20053;-69
2023/08/12 11:02:33;;;;;;;0.60;0.60;;;20.10;99.90;;;;;;4998719;28;20041;-69
2023/08/12 11:05:10;;;;;;;0.40;0.40;;;20.20;99.90;;;;;;5021839;28;20386;-69
2023/08/12 11:07:42;;;;;;;0.30;0.30;;;20.90;99.90;;;;;;5009922;28;20088;-69
2023/08/12 11:10:14;;;;;;;0.35;0.35;;;20.90;99.90;;;;;;4990637;28;20145;-69
2023/08/12 11:12:52;;;;;;;0.30;0.30;;;20.80;99.90;;;;;;5009389;28;20132;-70
2023/08/12 11:15:28;;;;;;;0.45;0.45;;;20.40;99.90;;;;;;4999184;28;20033;-70
2023/08/12 11:17:55;;;;;;;0.30;0.30;;;20.80;99.90;;;;;;5007482;28;20064;-69
2023/08/12 11:20:21;;;;;;;0.30;0.30;;;21.00;99.90;;;;;;5002274;28;20042;-69
2023/08/12 11:22:47;;;;;;;0.20;0.20;;;20.70;99.90;;;;;;5006404;28;20034;-69
2023/08/12 11:25:14;;;;;;;0.30;0.30;;;20.80;99.90;;;;;;5004790;28;20041;-70
2023/08/12 11:27:41;;;;;;;0.40;0.40;;;21.30;99.90;;;;;;4988984;28;20093;-69
2023/08/12 11:30:07;;;;;;;0.47;0.47;;;21.50;99.90;;;;;;4984317;28;20138;-71
2023/08/12 11:32:34;;;;;;;0.30;0.30;;;20.90;99.90;;;;;;4998904;28;20057;-72
2023/08/12 11:35:00;;;;;;;0.20;0.20;;;21.10;99.90;;;;;;4987569;28;20429;-72
2023/08/12 11:37:26;;;;;;;0.30;0.30;;;21.50;99.90;;;;;;5004730;28;20246;-70
2023/08/12 11:39:52;;;;;;;0.40;0.40;;;21.00;99.90;;;;;;5005625;28;20096;-71
2023/08/12 11:42:18;;;;;;;0.30;0.30;;;21.30;99.90;;;;;;5001240;28;20092;-70
2023/08/12 11:44:44;;;;;;;0.30;0.30;;;20.90;99.90;;;;;;5002509;28;20037;-69
2023/08/12 11:47:09;;;;;;;0.35;0.35;;;21.00;99.90;;;;;;5002307;28;20044;-70
2023/08/12 11:49:35;;;;;;;0.40;0.40;;;20.80;99.90;;;;;;5005443;28;20049;-69
2023/08/12 11:52:01;;;;;;;0.40;0.40;;;20.60;99.90;;;;;;4984656;28;20045;-70
2023/08/12 11:54:28;;;;;;;0.40;0.40;;;21.10;99.90;;;;;;5006582;28;20037;-70
2023/08/12 11:56:53;;;;;;;0.30;0.30;;;21.30;99.90;;;;;;5005694;28;20121;-71
2023/08/12 11:59:22;;;;;;;0.30;0.30;;;20.70;99.90;;;;;;4989375;28;20117;-72
2023/08/12 12:01:49;;;;;;;0.30;0.30;;;21.10;99.90;;;;;;5006042;28;20132;-72
2023/08/12 12:04:16;;;;;;;0.30;0.30;;;20.80;99.90;;;;;;4984386;28;20476;-72
2023/08/12 12:07:30;;;;;;;0.30;0.30;;;20.80;99.90;;;;;;5006341;28;20053;-74
2023/08/12 12:09:56;;;;;;;0.20;0.20;;;21.00;99.90;;;;;;5003915;28;20069;-72
2023/08/12 12:12:24;;;;;;;0.30;0.30;;;20.70;99.90;;;;;;5006994;28;20033;-71
2023/08/12 12:14:55;;;;;;;0.30;0.30;;;21.20;99.90;;;;;;4983446;28;20044;-72
2023/08/12 12:17:22;;;;;;;0.22;0.22;;;21.30;99.90;;;;;;5011291;28;20042;-72
2023/08/12 12:19:55;;;;;;;0.20;0.20;;;21.50;99.90;;;;;;5006388;28;20585;-72
2023/08/12 12:22:27;;;;;;;0.30;0.30;;;21.80;99.90;;;;;;4996221;28;20080;-73
2023/08/12 12:24:53;;;;;;;0.40;0.40;;;;;;;;;;5009998;28;20129;-72
2023/08/12 12:27:19;;;;;;;0.30;0.30;;;;;;;;;;5003630;28;20559;-72
2023/08/12 12:29:46;;;;;;;0.30;0.30;;;;;;;;;;5014005;28;20475;-73
2023/08/12 12:32:12;;;;;;;0.30;0.30;;;;;;;;;;5010998;28;20053;-72
2023/08/12 12:34:38;;;;;;;0.40;0.40;;;;;;;;;;5010750;28;20094;-72
2023/08/12 12:37:04;;;;;;;0.65;0.40;;;;;;;;;;5007225;28;20046;-72
2023/08/12 12:39:31;;;;;;;0.52;0.40;;;21.40;99.90;;;;;;5012846;28;20501;-72
2023/08/12 12:41:59;;;;;;;0.20;0.20;;;;;;;;;;5028825;28;20125;-72
2023/08/12 12:44:25;;;;;;;0.28;0.28;;;;;;;;;;4995379;28;20046;-71
2023/08/12 12:46:51;;;;;;;0.30;0.30;;;22.10;99.90;;;;;;5012378;28;20132;-71
2023/08/12 12:49:17;;;;;;;0.40;0.40;;;21.40;99.90;;;;;;5011357;28;20466;-71
2023/08/12 12:51:42;;;;;;;0.40;0.40;;;21.50;99.90;;;;;;5011635;28;20512;-71
2023/08/12 12:54:08;;;;;;;0.40;0.40;;;22.10;99.90;;;;;;5012716;28;20044;-72
2023/08/12 12:56:34;;;;;;;0.30;0.30;;;;;;;;;;5004226;28;20034;-72
2023/08/12 12:59:00;;;;;;;0.40;0.40;;;22.10;99.90;;;;;;5008989;28;20808;-71